createdAt,value
2019-02-28T00:01:59.418Z,25.50
2019-02-28T00:04:36.414Z,25.50
2019-02-28T00:07:17.561Z,25.50
2019-02-28T00:09:51.677Z,25.60
2019-02-28T00:12:28.734Z,25.60
2019-02-28T00:17:42.875Z,25.90
2019-02-28T00:20:18.716Z,26.20
2019-02-28T00:22:56.201Z,26.10
2019-02-28T00:25:37.699Z,26.60
2019-02-28T00:28:11.450Z,26.40
2019-02-28T00:30:49.707Z,26.70
2019-02-28T00:33:27.044Z,26.60
2019-02-28T00:36:04.145Z,26.70
2019-02-28T00:38:41.253Z,26.50
2019-02-28T00:41:18.362Z,26.50
2019-02-28T00:43:58.371Z,26.50
2019-02-28T00:49:10.004Z,26.40
2019-02-28T00:51:47.398Z,26.10
2019-02-28T00:56:59.012Z,26.90
2019-02-28T00:59:36.257Z,23.40
2019-02-28T01:02:13.297Z,26.40
2019-02-28T01:04:50.533Z,26.70
2019-02-28T01:15:14.794Z,27.10
2019-02-28T01:17:51.999Z,27.00
2019-02-28T01:20:29.181Z,26.90
2019-02-28T01:23:07.151Z,26.90
2019-02-28T01:25:44.273Z,27.00
2019-02-28T01:28:26.589Z,27.20
2019-02-28T01:33:35.422Z,27.20
2019-02-28T01:36:15.301Z,27.40
2019-02-28T01:44:01.654Z,27.30
2019-02-28T01:51:47.168Z,27.30
2019-02-28T01:54:27.293Z,27.90
2019-02-28T01:57:02.574Z,27.40
2019-02-28T02:02:15.774Z,26.80
2019-02-28T02:04:53.026Z,27.50
2019-02-28T02:07:30.543Z,27.50
2019-02-28T02:10:10.149Z,28.90
2019-02-28T02:12:47.322Z,27.70
2019-02-28T02:15:26.030Z,27.60
2019-02-28T02:18:03.061Z,27.60
2019-02-28T02:20:40.102Z,27.60
2019-02-28T02:23:18.067Z,27.40
2019-02-28T02:25:55.202Z,27.70
2019-02-28T02:28:32.374Z,27.50
2019-02-28T02:38:55.016Z,28.00
2019-02-28T02:41:33.448Z,28.00
2019-02-28T02:44:10.185Z,28.30
2019-02-28T02:46:47.287Z,28.50
2019-02-28T02:49:24.345Z,28.40
2019-02-28T02:52:01.404Z,28.50
2019-02-28T02:59:48.729Z,28.80
2019-02-28T03:02:28.779Z,28.60
2019-02-28T03:12:48.670Z,28.80
2019-02-28T03:15:27.085Z,29.10
2019-02-28T03:18:04.043Z,28.40
2019-02-28T03:20:42.299Z,28.00
2019-02-28T03:23:19.568Z,28.00
2019-02-28T03:31:14.427Z,27.70
2019-02-28T03:38:55.254Z,27.50
2019-02-28T03:41:32.336Z,27.50
2019-02-28T03:44:09.417Z,27.40
2019-02-28T03:46:47.789Z,27.90
2019-02-28T03:49:24.739Z,27.00
2019-02-28T03:52:05.954Z,27.50
2019-02-28T03:54:40.010Z,27.50
2019-02-28T03:57:17.266Z,27.50
2019-02-28T04:10:16.780Z,27.20
2019-02-28T04:20:41.036Z,27.30
2019-02-28T04:23:18.123Z,27.40
2019-02-28T04:25:56.877Z,27.40
2019-02-28T04:28:33.503Z,27.50
2019-02-28T04:31:18.402Z,27.80
2019-02-28T04:33:51.645Z,27.70
2019-02-28T04:36:28.667Z,28.00
2019-02-28T04:39:06.774Z,28.00
2019-02-28T04:41:44.036Z,28.20
2019-02-28T04:44:21.039Z,27.80
2019-02-28T04:46:58.381Z,28.10
2019-02-28T04:49:40.447Z,28.20
2019-02-28T04:52:17.438Z,28.60
2019-02-28T04:54:54.648Z,27.50
2019-02-28T04:57:31.780Z,27.70
2019-02-28T05:00:09.117Z,27.20
2019-02-28T05:02:47.563Z,28.00
2019-02-28T05:10:35.582Z,28.30
2019-02-28T05:13:14.291Z,28.50
2019-02-28T05:15:50.958Z,28.20
2019-02-28T05:18:28.240Z,29.00
2019-02-28T05:23:39.859Z,29.00
2019-02-28T05:26:17.010Z,29.10
2019-02-28T05:28:55.679Z,28.90
2019-02-28T05:31:32.877Z,28.90
2019-02-28T05:41:54.891Z,28.80
2019-02-28T05:44:32.064Z,29.00
2019-02-28T05:47:09.105Z,29.20
2019-02-28T05:49:46.196Z,29.20
2019-02-28T05:52:23.195Z,29.40
2019-02-28T05:57:35.036Z,29.10
2019-02-28T06:00:15.752Z,29.30
2019-02-28T06:02:54.420Z,29.40
2019-02-28T06:05:32.281Z,29.70
2019-02-28T06:08:09.380Z,29.30
2019-02-28T06:10:47.718Z,28.90
2019-02-28T06:13:25.087Z,29.50
2019-02-28T06:16:03.023Z,29.20
2019-02-28T06:18:40.082Z,29.30
2019-02-28T06:21:17.251Z,28.60
2019-02-28T06:23:54.374Z,28.70
2019-02-28T06:26:32.003Z,28.70
2019-02-28T06:29:09.720Z,28.20
2019-02-28T06:31:48.692Z,28.70
2019-02-28T06:34:24.815Z,28.60
2019-02-28T06:37:03.704Z,31.00
2019-02-28T06:42:14.678Z,28.70
2019-02-28T06:47:27.542Z,28.50
2019-02-28T06:50:04.504Z,28.20
2019-02-28T06:52:41.900Z,28.70
2019-02-28T07:00:37.956Z,29.30
2019-02-28T07:03:16.272Z,29.20
2019-02-28T07:05:57.536Z,29.20
2019-02-28T07:08:32.759Z,29.00
2019-02-28T07:13:45.571Z,28.80
2019-02-28T07:16:22.707Z,28.70
2019-02-28T07:18:59.722Z,28.20
2019-02-28T07:21:42.933Z,28.20
2019-02-28T07:24:15.064Z,28.10
2019-02-28T07:26:53.511Z,28.40
2019-02-28T07:32:06.136Z,28.80
2019-02-28T07:37:18.875Z,28.40
2019-02-28T07:39:55.906Z,28.60
2019-02-28T07:42:44.935Z,28.50
2019-02-28T07:45:22.064Z,28.10
2019-02-28T07:47:59.247Z,28.40
2019-02-28T07:50:36.281Z,27.90
2019-02-28T07:53:13.353Z,27.70
2019-02-28T07:55:50.585Z,28.00
2019-02-28T08:01:06.680Z,27.20
2019-02-28T08:06:19.470Z,27.00
2019-02-28T08:11:31.293Z,27.10
2019-02-28T08:14:09.162Z,26.80
2019-02-28T08:19:22.701Z,26.50
2019-02-28T08:21:58.873Z,26.40
2019-02-28T08:24:36.654Z,26.50
2019-02-28T08:27:13.784Z,26.30
2019-02-28T08:29:51.061Z,26.30
2019-02-28T08:35:04.468Z,26.30
2019-02-28T08:40:19.783Z,26.50
2019-02-28T08:42:56.877Z,26.20
2019-02-28T08:48:09.923Z,26.10
2019-02-28T08:50:47.149Z,26.80
2019-02-28T08:53:24.268Z,26.00
2019-02-28T08:56:01.317Z,26.00
2019-02-28T08:58:38.534Z,26.10
2019-02-28T09:01:19.647Z,25.90
2019-02-28T09:03:59.800Z,26.00
2019-02-28T09:06:37.842Z,25.60
2019-02-28T09:11:57.815Z,25.80
2019-02-28T09:14:32.370Z,25.80
2019-02-28T09:22:19.054Z,27.00
2019-02-28T09:24:56.186Z,25.60
2019-02-28T09:30:08.613Z,25.90
2019-02-28T09:32:48.321Z,25.80
2019-02-28T09:43:18.578Z,25.70
2019-02-28T09:48:30.671Z,25.70
2019-02-28T09:51:07.985Z,25.90
2019-02-28T09:53:47.346Z,26.00
2019-02-28T09:56:23.486Z,25.80
2019-02-28T09:59:03.280Z,25.70
2019-02-28T10:01:39.266Z,25.40
2019-02-28T10:04:16.373Z,25.80
2019-02-28T10:06:53.811Z,25.60
2019-02-28T10:09:30.915Z,25.70
2019-02-28T10:12:08.849Z,25.30
2019-02-28T10:14:46.355Z,25.70
2019-02-28T10:17:25.870Z,25.50
2019-02-28T10:20:01.504Z,25.50
2019-02-28T10:22:38.595Z,25.90
2019-02-28T10:33:03.805Z,25.50
2019-02-28T10:35:40.956Z,25.70
2019-02-28T10:38:18.127Z,25.40
2019-02-28T10:40:55.224Z,25.40
2019-02-28T10:43:32.701Z,25.10
2019-02-28T10:46:09.963Z,25.50
2019-02-28T10:48:50.755Z,25.60
2019-02-28T10:53:59.674Z,25.30
2019-02-28T10:56:36.797Z,25.30
2019-02-28T10:59:14.615Z,25.50
2019-02-28T11:01:52.273Z,26.00
2019-02-28T11:04:30.231Z,25.70
2019-02-28T11:07:07.311Z,25.70
2019-02-28T11:09:44.437Z,25.20
2019-02-28T11:12:23.731Z,25.00
2019-02-28T11:14:59.815Z,25.20
2019-02-28T11:20:21.795Z,25.30
2019-02-28T11:22:51.187Z,25.40
2019-02-28T11:25:34.626Z,25.10
2019-02-28T11:30:44.788Z,25.50
2019-02-28T11:33:22.884Z,25.10
2019-02-28T11:36:00.021Z,25.10
2019-02-28T11:38:37.072Z,25.80
2019-02-28T11:41:15.498Z,25.20
2019-02-28T11:43:53.529Z,25.10
2019-02-28T11:46:35.814Z,25.00
2019-02-28T11:49:08.977Z,25.30
2019-02-28T11:51:46.226Z,25.50
2019-02-28T11:54:24.729Z,24.90
2019-02-28T11:57:03.117Z,25.30
2019-02-28T11:59:40.262Z,25.00
2019-02-28T12:04:52.578Z,25.20
2019-02-28T12:10:04.460Z,25.10
2019-02-28T12:12:44.416Z,24.60
2019-02-28T12:17:55.211Z,25.20
2019-02-28T12:23:07.045Z,25.00
2019-02-28T12:25:44.387Z,25.30
2019-02-28T12:30:57.316Z,25.70
2019-02-28T12:33:34.391Z,25.20
2019-02-28T12:36:14.339Z,25.10
2019-02-28T12:44:00.178Z,25.10
2019-02-28T12:46:37.338Z,25.30
2019-02-28T12:49:14.540Z,25.50
2019-02-28T12:51:51.728Z,25.90
2019-02-28T12:54:30.351Z,25.20
2019-02-28T12:57:07.100Z,25.40
2019-02-28T12:59:45.816Z,25.20
2019-02-28T13:04:56.952Z,25.30
2019-02-28T13:07:34.653Z,25.30
2019-02-28T13:12:48.936Z,25.30
2019-02-28T13:15:25.500Z,24.60
2019-02-28T13:18:07.169Z,25.20
2019-02-28T13:20:41.240Z,24.90
2019-02-28T13:23:18.304Z,24.90
2019-02-28T13:25:59.971Z,25.10
2019-02-28T13:28:34.848Z,24.80
2019-02-28T13:31:12.366Z,25.00
2019-02-28T13:36:26.784Z,24.70
2019-02-28T13:39:03.869Z,24.80
2019-02-28T13:41:42.433Z,24.60
2019-02-28T13:46:56.654Z,24.50
2019-02-28T13:49:35.987Z,25.40
2019-02-28T13:52:18.843Z,24.40
2019-02-28T13:54:50.415Z,24.80
2019-02-28T13:57:27.583Z,24.60
2019-02-28T14:00:07.795Z,24.50
2019-02-28T14:02:43.167Z,24.80
2019-02-28T14:05:20.306Z,24.10
2019-02-28T14:07:57.845Z,24.60
2019-02-28T14:10:35.174Z,24.40
2019-02-28T14:13:12.585Z,24.70
2019-02-28T14:15:52.411Z,24.50
2019-02-28T14:18:28.793Z,24.30
2019-02-28T14:21:05.928Z,24.50
2019-02-28T14:23:43.051Z,25.00
2019-02-28T14:26:20.092Z,21.80
2019-02-28T14:28:57.255Z,24.40
2019-02-28T14:31:36.166Z,24.30
2019-02-28T14:34:13.177Z,24.20
2019-02-28T14:36:50.239Z,24.30
2019-02-28T14:39:27.389Z,24.40
2019-02-28T14:42:06.748Z,24.50
2019-02-28T14:44:43.942Z,24.30
2019-02-28T14:47:21.013Z,24.30
2019-02-28T14:49:58.217Z,24.40
2019-02-28T14:52:35.869Z,24.30
2019-02-28T14:55:15.077Z,24.30
2019-02-28T14:57:52.252Z,24.30
2019-02-28T15:00:35.369Z,24.20
2019-02-28T15:03:12.332Z,24.20
2019-02-28T15:05:52.478Z,24.20
2019-02-28T15:08:27.879Z,24.20
2019-02-28T15:11:06.543Z,24.30
2019-02-28T15:13:43.108Z,24.30
2019-02-28T15:16:21.599Z,24.10
2019-02-28T15:18:58.524Z,24.10
2019-02-28T15:21:35.790Z,24.30
2019-02-28T15:24:12.951Z,24.20
2019-02-28T15:26:50.075Z,23.70
2019-02-28T15:29:27.177Z,24.30
2019-02-28T15:32:04.296Z,24.30
2019-02-28T15:34:45.349Z,24.30
2019-02-28T15:37:22.621Z,24.30
2019-02-28T15:39:59.714Z,23.80
2019-02-28T15:42:39.675Z,24.30
2019-02-28T15:45:16.407Z,24.20
2019-02-28T15:53:07.971Z,24.10
2019-02-28T15:55:45.095Z,24.20
2019-02-28T16:00:59.411Z,24.20
2019-02-28T16:03:36.610Z,24.30
2019-02-28T16:06:16.127Z,24.30
2019-02-28T16:08:52.120Z,24.20
2019-02-28T16:11:29.337Z,24.30
2019-02-28T16:14:14.569Z,24.20
2019-02-28T16:16:47.510Z,24.20
2019-02-28T16:22:01.753Z,23.90
2019-02-28T16:24:39.859Z,24.10
2019-02-28T16:27:19.435Z,24.20
2019-02-28T16:29:56.730Z,24.00
2019-02-28T16:32:33.871Z,24.00
2019-02-28T16:35:14.703Z,23.90
2019-02-28T16:37:49.637Z,24.10
2019-02-28T16:40:27.401Z,23.70
2019-02-28T16:43:04.649Z,23.80
2019-02-28T16:45:45.315Z,24.10
2019-02-28T16:48:22.421Z,23.80
2019-02-28T16:50:59.591Z,23.50
2019-02-28T16:53:36.720Z,24.00
2019-02-28T16:56:15.821Z,23.40
2019-02-28T16:58:57.274Z,24.10
2019-02-28T17:01:32.429Z,23.90
2019-02-28T17:04:09.536Z,24.50
2019-02-28T17:06:46.933Z,24.00
2019-02-28T17:09:30.311Z,24.10
2019-02-28T17:12:11.640Z,23.90
2019-02-28T17:14:49.210Z,23.90
2019-02-28T17:17:31.759Z,24.00
2019-02-28T17:20:09.037Z,24.00
2019-02-28T17:22:46.365Z,24.00
2019-02-28T17:25:23.622Z,23.90
2019-02-28T17:28:08.936Z,23.90
2019-02-28T17:30:51.765Z,24.10
2019-02-28T17:33:28.988Z,24.20
2019-02-28T17:36:08.454Z,23.80
2019-02-28T17:38:44.689Z,23.90
2019-02-28T17:41:21.866Z,23.80
2019-02-28T17:44:28.584Z,23.90
2019-02-28T17:47:07.701Z,23.80
2019-02-28T17:50:31.283Z,23.90
2019-02-28T17:53:19.792Z,23.90
2019-02-28T17:56:22.763Z,23.90
2019-02-28T17:59:25.597Z,23.80
2019-02-28T18:08:06.752Z,23.80
2019-02-28T18:11:21.935Z,23.70
2019-02-28T18:26:02.265Z,23.80
2019-02-28T18:29:03.764Z,23.80
2019-02-28T18:31:41.963Z,23.80
2019-02-28T18:36:59.105Z,23.50
2019-02-28T18:39:36.311Z,23.70
2019-02-28T18:42:16.020Z,24.60
2019-02-28T18:44:51.872Z,23.60
2019-02-28T18:47:29.081Z,23.70
2019-02-28T18:50:06.239Z,23.50
2019-02-28T18:55:17.495Z,23.30
2019-02-28T18:57:54.783Z,23.60
2019-02-28T19:00:31.959Z,23.50
2019-02-28T19:03:09.015Z,23.50
2019-02-28T19:05:46.342Z,23.70
2019-02-28T19:08:23.420Z,23.50
2019-02-28T19:13:36.131Z,23.40
2019-02-28T19:31:45.955Z,23.20
2019-02-28T19:39:33.818Z,23.40
2019-02-28T19:42:11.033Z,23.50
2019-02-28T19:44:48.267Z,23.50
2019-02-28T19:50:01.106Z,22.90
2019-02-28T19:52:38.287Z,22.80
2019-02-28T19:55:17.263Z,23.50
2019-02-28T19:57:54.484Z,23.30
2019-02-28T20:05:41.066Z,23.50
2019-02-28T20:08:18.026Z,23.60
2019-02-28T20:10:55.117Z,23.40
2019-02-28T20:13:32.379Z,23.00
2019-02-28T20:16:09.767Z,24.00
2019-02-28T20:18:50.398Z,23.20
2019-02-28T20:21:27.416Z,23.60
2019-02-28T20:24:04.990Z,23.10
2019-02-28T20:26:43.365Z,23.20
2019-02-28T20:29:20.498Z,23.60
2019-02-28T20:31:57.643Z,23.30
2019-02-28T20:34:34.784Z,23.40
2019-02-28T20:39:46.683Z,24.00
2019-02-28T20:44:58.541Z,24.00
2019-02-28T20:50:16.152Z,24.40
2019-02-28T20:52:53.354Z,23.60
2019-02-28T20:55:31.231Z,23.50
2019-02-28T21:03:17.676Z,23.80
2019-02-28T21:08:29.535Z,23.60
2019-02-28T21:11:06.802Z,23.70
2019-02-28T21:13:44.209Z,24.30
2019-02-28T21:16:21.316Z,24.10
2019-02-28T21:18:58.413Z,24.10
2019-02-28T21:21:35.667Z,23.90
2019-02-28T21:24:12.807Z,23.90
2019-02-28T21:26:51.655Z,24.00
2019-02-28T21:29:28.710Z,23.60
2019-02-28T21:32:05.736Z,23.80
2019-02-28T21:34:42.866Z,24.00
2019-02-28T21:37:20.155Z,24.20
2019-02-28T21:39:57.311Z,23.80
2019-02-28T21:42:34.585Z,24.50
2019-02-28T21:45:12.398Z,24.20
2019-02-28T21:47:49.415Z,23.90
2019-02-28T21:50:28.447Z,24.30
2019-02-28T21:53:05.062Z,24.30
2019-02-28T21:55:42.368Z,24.30
2019-02-28T22:00:54.306Z,24.40
2019-02-28T22:03:31.719Z,24.30
2019-02-28T22:06:08.862Z,24.60
2019-02-28T22:08:46.145Z,24.70
2019-02-28T22:16:34.616Z,25.10
2019-02-28T22:19:11.920Z,25.00
2019-02-28T22:26:59.911Z,24.80
2019-02-28T22:29:37.118Z,24.90
2019-02-28T22:32:26.634Z,24.90
2019-02-28T22:35:27.172Z,25.00
2019-02-28T22:38:04.395Z,24.90
2019-02-28T22:40:41.943Z,25.00
2019-02-28T22:43:19.060Z,25.00
2019-02-28T22:45:56.553Z,25.00
2019-02-28T22:48:33.682Z,24.90
2019-02-28T22:51:10.943Z,24.90
2019-02-28T22:53:48.077Z,24.90
2019-02-28T22:56:25.220Z,24.90
2019-02-28T22:59:04.563Z,25.00
2019-02-28T23:01:42.174Z,25.00
2019-02-28T23:04:19.260Z,25.10
2019-02-28T23:06:56.351Z,24.90
2019-02-28T23:09:33.440Z,25.10
2019-02-28T23:12:10.552Z,24.90
2019-02-28T23:14:47.689Z,25.30
2019-02-28T23:17:24.992Z,25.40
2019-02-28T23:20:02.191Z,25.60
2019-02-28T23:22:39.481Z,25.50
2019-02-28T23:25:16.624Z,25.50
2019-02-28T23:27:53.920Z,25.60
2019-02-28T23:31:00.903Z,25.60
2019-02-28T23:33:38.241Z,25.50
2019-02-28T23:36:15.289Z,25.50
2019-02-28T23:38:52.510Z,25.60
2019-02-28T23:41:29.681Z,25.60
2019-02-28T23:44:07.987Z,25.00
2019-02-28T23:46:45.307Z,25.60
2019-02-28T23:49:22.463Z,25.70
2019-02-28T23:51:59.654Z,24.70
2019-02-28T23:54:36.869Z,25.70
2019-02-28T23:57:14.629Z,25.70
2019-02-28T23:59:57.253Z,25.70
